Maximiano — PWPM — position and weather

sailwx.info

Track history (hours):
 
Tides and Currents Weather Stations Pressure Air Temp Water Temp Dewpoint Dewpoint Depression Visibility Wind Speed Wind Dir Waves Ship Positions

Oceanographic research ship Maximiano (Brazil)

Last reported at 2019-Apr-27 15:17 UTC. Time now 2019-Jun-16 01:26 UTC.
Position S 22°54' W 043°10'.
Warning: this ship's position is 49 days out of date.

Type: Military. MMSI: 710481000.

Date/timePositionNaut miles runAvg speedWind from/ knotsBaromVisibWave heightAir tempDewpointWater temp
2019-Apr-27 15:17S 22°54' W 043°10'0 0.4
2019-Apr-27 15:00S 22°54' W 043°10'1 2.5
2019-Apr-27 14:30S 22°54' W 043°09'4 7.4
2019-Apr-27 14:00S 22°57' W 043°09'4 7.4
2019-Apr-27 13:30S 23°00' W 043°12'5 8.3
2019-Apr-27 12:58S 23°03' W 043°16'2 1.1
2019-Apr-27 11:29S 23°04' W 043°17'0 0.1
2019-Apr-27 10:40S 23°04' W 043°17'1 1.6
2019-Apr-27 10:13S 23°04' W 043°18'2 8.7
2019-Apr-27 09:59S 23°05' W 043°20'510.8
2019-Apr-27 09:30S 23°06' W 043°25'510.9
2019-Apr-27 09:01S 23°07' W 043°31'611.1
2019-Apr-27 08:30S 23°08' W 043°37'2011.0
2019-Apr-27 06:39S 23°08' W 043°59'  
2019-Apr-24 05:23S 23°11' W 043°43'3 6.9
2019-Apr-24 04:59S 23°12' W 043°40'3 6.7
2019-Apr-24 04:28S 23°13' W 043°36'5 6.8
2019-Apr-24 03:43S 23°14' W 043°31'2 6.9
2019-Apr-24 03:25S 23°14' W 043°28'3 6.8
2019-Apr-24 03:00S 23°14' W 043°25'4 6.8
2019-Apr-24 02:29S 23°13' W 043°22'4 6.6
2019-Apr-24 01:57S 23°13' W 043°18'3 6.5
2019-Apr-24 01:30S 23°11' W 043°15'3 6.6
2019-Apr-24 01:00S 23°08' W 043°14'3 5.2
2019-Apr-24 00:30S 23°06' W 043°13'2 3.7
2019-Apr-24 00:00S 23°05' W 043°11'2 4.0
2019-Apr-23 23:30S 23°03' W 043°10'2 4.4
2019-Apr-23 23:01S 23°01' W 043°09'2 4.5
2019-Apr-23 22:30S 22°59' W 043°09'5 9.3
2019-Apr-23 22:01S 22°54' W 043°09'1 2.5
2019-Apr-23 21:31S 22°53' W 043°09'0 0.0
2019-Apr-23 21:01S 22°53' W 043°09'0 0.2
2019-Apr-23 20:30S 22°53' W 043°09'4 9.0
2019-Apr-23 20:00S 22°58' W 043°08'510.7
2019-Apr-23 19:30S 23°03' W 043°07'510.2
2019-Apr-23 19:00S 23°07' W 043°04'5 9.2
2019-Apr-23 18:30S 23°08' W 042°59'5 9.0
2019-Apr-23 17:55S 23°10' W 042°54'4 8.3
2019-Apr-23 17:27S 23°12' W 042°50'3 6.4
2019-Apr-23 17:00S 23°11' W 042°53'3 6.3
2019-Apr-23 16:30S 23°10' W 042°56'4 6.7
2019-Apr-23 15:57S 23°09' W 043°00'3 4.4
2019-Apr-23 15:15S 23°08' W 043°03'1 4.1
2019-Apr-23 15:00S 23°07' W 043°04'2 4.0
2019-Apr-23 14:30S 23°05' W 043°05'3 7.0
2019-Apr-23 14:01S 23°02' W 043°06'1 1.3
2019-Apr-23 13:31S 23°02' W 043°05'3 5.2
2019-Apr-23 13:01S 22°60' W 043°07'510.2
2019-Apr-23 12:31S 22°55' W 043°09'2 3.8
2019-Apr-23 11:59S 22°54' W 043°10'  
Track history (hours):
 
Tides and Currents Weather Stations Pressure Air Temp Water Temp Dewpoint Dewpoint Depression Visibility Wind Speed Wind Dir Waves Ship Positions

Oceanographic research ship Maximiano (Brazil)

Last reported at 2019-Apr-27 15:17 UTC. Time now 2019-Jun-16 01:26 UTC.
Position S 22°54' W 043°10'.
Warning: this ship's position is 49 days out of date.

Type: Military. MMSI: 710481000.

Date/timePositionNaut miles runAvg speedWind from/ knotsBaromVisibWave heightAir tempDewpointWater temp
2019-Apr-27 15:17S 22°54' W 043°10'0 0.4
2019-Apr-27 15:00S 22°54' W 043°10'1 2.5
2019-Apr-27 14:30S 22°54' W 043°09'4 7.4
2019-Apr-27 14:00S 22°57' W 043°09'4 7.4
2019-Apr-27 13:30S 23°00' W 043°12'5 8.3
2019-Apr-27 12:58S 23°03' W 043°16'2 1.1
2019-Apr-27 11:29S 23°04' W 043°17'0 0.1
2019-Apr-27 10:40S 23°04' W 043°17'1 1.6
2019-Apr-27 10:13S 23°04' W 043°18'2 8.7
2019-Apr-27 09:59S 23°05' W 043°20'510.8
2019-Apr-27 09:30S 23°06' W 043°25'510.9
2019-Apr-27 09:01S 23°07' W 043°31'611.1
2019-Apr-27 08:30S 23°08' W 043°37'2011.0
2019-Apr-27 06:39S 23°08' W 043°59'  
2019-Apr-24 05:23S 23°11' W 043°43'3 6.9
2019-Apr-24 04:59S 23°12' W 043°40'3 6.7
2019-Apr-24 04:28S 23°13' W 043°36'5 6.8
2019-Apr-24 03:43S 23°14' W 043°31'2 6.9
2019-Apr-24 03:25S 23°14' W 043°28'3 6.8
2019-Apr-24 03:00S 23°14' W 043°25'4 6.8
2019-Apr-24 02:29S 23°13' W 043°22'4 6.6
2019-Apr-24 01:57S 23°13' W 043°18'3 6.5
2019-Apr-24 01:30S 23°11' W 043°15'3 6.6
2019-Apr-24 01:00S 23°08' W 043°14'3 5.2
2019-Apr-24 00:30S 23°06' W 043°13'2 3.7
2019-Apr-24 00:00S 23°05' W 043°11'2 4.0
2019-Apr-23 23:30S 23°03' W 043°10'2 4.4
2019-Apr-23 23:01S 23°01' W 043°09'2 4.5
2019-Apr-23 22:30S 22°59' W 043°09'5 9.3
2019-Apr-23 22:01S 22°54' W 043°09'1 2.5
2019-Apr-23 21:31S 22°53' W 043°09'0 0.0
2019-Apr-23 21:01S 22°53' W 043°09'0 0.2
2019-Apr-23 20:30S 22°53' W 043°09'4 9.0
2019-Apr-23 20:00S 22°58' W 043°08'510.7
2019-Apr-23 19:30S 23°03' W 043°07'510.2
2019-Apr-23 19:00S 23°07' W 043°04'5 9.2
2019-Apr-23 18:30S 23°08' W 042°59'5 9.0
2019-Apr-23 17:55S 23°10' W 042°54'4 8.3
2019-Apr-23 17:27S 23°12' W 042°50'3 6.4
2019-Apr-23 17:00S 23°11' W 042°53'3 6.3
2019-Apr-23 16:30S 23°10' W 042°56'4 6.7
2019-Apr-23 15:57S 23°09' W 043°00'3 4.4
2019-Apr-23 15:15S 23°08' W 043°03'1 4.1
2019-Apr-23 15:00S 23°07' W 043°04'2 4.0
2019-Apr-23 14:30S 23°05' W 043°05'3 7.0
2019-Apr-23 14:01S 23°02' W 043°06'1 1.3
2019-Apr-23 13:31S 23°02' W 043°05'3 5.2
2019-Apr-23 13:01S 22°60' W 043°07'510.2
2019-Apr-23 12:31S 22°55' W 043°09'2 3.8
2019-Apr-23 11:59S 22°54' W 043°10'  

Dump ship's entire track history